Observations for KINLOSS RAF, United Kingdom (EGQK)

EGQK 190250Z AUTO 19013KT 9999 NCD 09/06 Q0994  
EGQK 190150Z AUTO 21014KT 9999 FEW050/// 08/06 Q0993 RERA   
EGQK 190050Z AUTO 19011KT 9999 FEW070/// 12/08 Q0993
EGQK 182350Z AUTO 16008KT 9999 NCD 12/08 Q0993  
EGQK 182250Z AUTO 15004KT 9999 FEW060/// 11/09 Q0994
EGQK 182150Z AUTO 21014KT 9999 BKN045/// 13/10 Q0994 RERA   
EGQK 182050Z AUTO 23009KT 9999 -RA FEW031/// BKN050/// 13/11 Q0994  
EGQK 181950Z AUTO 22007KT 9999 FEW044/// 13/10 Q0994 RERA   
EGQK 181850Z AUTO 21008KT 9999 BKN050/// 14/10 Q0994
EGQK 181750Z AUTO 23019KT 9999 FEW050/// 15/10 Q0993
EGQK 181650Z AUTO 23018KT 9999 NCD 16/11 Q0992  
EGQK 181550Z AUTO 23017KT 9999 FEW020/// 16/13 Q0991 RERA   
EGQK 181450Z AUTO 34007KT 3500 +RA BKN003/// SCT021/// 13/13 Q0992  
EGQK 181350Z AUTO 03005KT 9999 -RA BKN002/// SCT036/// 14/14 Q0991  
EGQK 181250Z AUTO 06005KT 8000 RA SCT005/// SCT009/// BKN016/// 14/13 Q0991 
EGQK 181150Z AUTO 07006KT 6000 RA BKN003/// 13/13 Q0992 
EGQK 181050Z AUTO 04009KT 2100 -DZ OVC002/// 13/13 Q0992
EGQK 180950Z AUTO 05007KT 1600 -DZ OVC003/// 13/13 Q0993
EGQK 180850Z AUTO 04009KT 3700 BR BKN003/// BKN009/// 13/13 Q0993   
EGQK 180750Z AUTO 04002KT 8000 -DZ FEW003/// BKN012/// 14/14 Q0993  
EGQK 180650Z AUTO 01005KT 4100 RA BKN008/// 14/13 Q0993 
EGQK 180550Z AUTO 05004KT 9999 RA BKN017/// BKN070/// 14/14 Q0993   
EGQK 180450Z AUTO 23005KT 7000 RA FEW046/// OVC060/// 16/14 Q0993   
EGQK 180350Z AUTO 21010KT 9999 BKN080/// 17/13 Q0993
EGQK 180250Z AUTO 21014KT 9999 BKN080/// SCT200/// 17/13 Q0993